Weatherford, Oklahoma
Current Conditions -  °F | °C
As of 10:15 AM on Monday 24 Nov 2014 (Local Time) from KOJA Reporting Station
Clear Clear  
Wind Chill: 39°   Ceiling: Unl
Heat Index: 45°   Visibility: 10mi
Dew Point: 27°   Wind: 10mph
Humidity: 49%   Direction: 270°W
Pressure: 30.02"   Gusts: NA
Location:  35.53°N, 98.71°W
Report Text: KOJA 241615Z AUTO 27009KT 10SM CLR 07/M03 A3002 RMK AO2
Loading
Personal Weather Stations






























Interactive Weather Map New forecast layout! Learn more

10-Day Weather Forecast

Advertisements
Track Severe Weather on mobile